createdAt,value
2018-02-06T00:01:32.172Z,102099.56
2018-02-06T00:04:00.530Z,102103.95
2018-02-06T00:06:28.872Z,102097.25
2018-02-06T00:08:57.167Z,102090.16
2018-02-06T00:11:25.550Z,102091.57
2018-02-06T00:13:53.908Z,102089.92
2018-02-06T00:16:22.266Z,102086.29
2018-02-06T00:18:50.553Z,102081.55
2018-02-06T00:21:18.877Z,102082.97
2018-02-06T00:23:47.211Z,102089.53
2018-02-06T00:26:15.561Z,102074.58
2018-02-06T00:28:43.901Z,102080.01
2018-02-06T00:31:19.309Z,102073.31
2018-02-06T00:33:47.855Z,102070.65
2018-02-06T00:36:16.190Z,102070.98
2018-02-06T00:38:44.745Z,102072.96
2018-02-06T00:41:13.072Z,102066.39
2018-02-06T00:43:41.400Z,102070.50
2018-02-06T00:46:09.752Z,102067.55
2018-02-06T00:48:38.087Z,102068.78
2018-02-06T00:51:06.394Z,102062.79
2018-02-06T00:53:34.698Z,102061.20
2018-02-06T00:56:03.299Z,102055.55
2018-02-06T00:58:32.099Z,102053.73
2018-02-06T01:01:01.007Z,102053.00
2018-02-06T01:03:30.439Z,102051.25
2018-02-06T01:05:59.031Z,102048.15
2018-02-06T01:08:29.249Z,102043.77
2018-02-06T01:10:58.091Z,102034.15
2018-02-06T01:13:26.426Z,102033.16
2018-02-06T01:15:54.813Z,102026.05
2018-02-06T01:18:23.206Z,102029.71
2018-02-06T01:20:51.546Z,102027.65
2018-02-06T01:23:19.989Z,102022.50
2018-02-06T01:25:48.354Z,102018.84
2018-02-06T01:28:16.668Z,102007.80
2018-02-06T01:30:45.578Z,102007.38
2018-02-06T01:33:13.932Z,102007.11
2018-02-06T01:35:42.527Z,102000.55
2018-02-06T01:38:10.855Z,101994.89
2018-02-06T01:40:39.230Z,101995.19
2018-02-06T01:43:08.070Z,101986.40
2018-02-06T01:45:36.435Z,101986.59
2018-02-06T01:48:04.744Z,101981.33
2018-02-06T01:50:33.075Z,101978.31
2018-02-06T01:53:05.623Z,101971.55
2018-02-06T01:55:35.271Z,101973.88
2018-02-06T01:58:04.231Z,101974.91
2018-02-06T02:00:32.635Z,101972.47
2018-02-06T02:03:00.936Z,101966.89
2018-02-06T02:05:29.526Z,101969.21
2018-02-06T02:07:57.851Z,101966.82
2018-02-06T02:10:26.288Z,101965.70
2018-02-06T02:12:56.177Z,101959.42
2018-02-06T02:15:24.503Z,101957.32
2018-02-06T02:17:53.045Z,101951.55
2018-02-06T02:20:21.677Z,101947.05
2018-02-06T02:22:50.095Z,101949.70
2018-02-06T02:25:18.431Z,101946.77
2018-02-06T02:27:46.839Z,101942.67
2018-02-06T02:30:15.164Z,101937.24
2018-02-06T02:32:43.467Z,101931.55
2018-02-06T02:35:11.873Z,101936.61
2018-02-06T02:37:40.172Z,101929.36
2018-02-06T02:40:08.944Z,101927.05
2018-02-06T04:38:39.611Z,101828.59
2018-02-06T04:41:08.229Z,101826.09
2018-02-06T04:43:36.561Z,101828.94
2018-02-06T04:46:04.944Z,101822.86
2018-02-06T04:48:33.214Z,101822.61
2018-02-06T04:51:01.542Z,101820.46
2018-02-06T04:53:30.054Z,101822.71
2018-02-06T04:55:58.592Z,101818.12
2018-02-06T04:58:26.992Z,101816.45
2018-02-06T05:03:50.885Z,101812.87
2018-02-06T05:06:19.250Z,101814.14
2018-02-06T05:08:47.563Z,101806.03
2018-02-06T05:11:16.001Z,101798.47
2018-02-06T05:13:44.347Z,101800.56
2018-02-06T05:16:12.870Z,101798.02
2018-02-06T05:18:41.252Z,101801.98
2018-02-06T05:21:09.582Z,101796.22
2018-02-06T05:23:37.938Z,101792.11
2018-02-06T05:26:06.414Z,101788.33
2018-02-06T05:28:34.733Z,101784.02
2018-02-06T05:31:03.055Z,101782.69
2018-02-06T05:33:31.459Z,101779.09
2018-02-06T05:35:59.779Z,101781.30
2018-02-06T05:38:28.075Z,101785.22
2018-02-06T05:40:56.430Z,101779.02
2018-02-06T05:43:24.891Z,101782.37
2018-02-06T05:45:53.278Z,101771.59
2018-02-06T05:48:21.610Z,101770.27
2018-02-06T05:50:49.951Z,101769.25
2018-02-06T05:53:18.260Z,101770.21
2018-02-06T05:55:46.562Z,101759.96
2018-02-06T05:58:14.904Z,101761.44
2018-02-06T06:00:43.646Z,101759.41
2018-02-06T06:03:11.939Z,101763.69
2018-02-06T06:05:40.795Z,101759.69
2018-02-06T06:08:09.298Z,101752.99
2018-02-06T06:10:42.163Z,101754.69
2018-02-06T06:13:11.723Z,101761.94
2018-02-06T06:15:40.401Z,101759.48
2018-02-06T06:18:11.816Z,101763.74
2018-02-06T06:20:41.070Z,101761.45
2018-02-06T06:23:10.863Z,101758.56
2018-02-06T06:25:39.467Z,101767.59
2018-02-06T06:28:07.779Z,101762.66
2018-02-06T06:30:36.160Z,101765.73
2018-02-06T06:33:04.443Z,101763.99
2018-02-06T06:35:33.125Z,101762.73
2018-02-06T06:38:03.328Z,101759.70
2018-02-06T06:40:32.301Z,101758.55
2018-02-06T06:43:01.550Z,101759.05
2018-02-06T06:45:30.599Z,101758.29
2018-02-06T06:47:58.976Z,101759.22
2018-02-06T06:50:27.310Z,101758.55
2018-02-06T06:52:55.606Z,101759.41
2018-02-06T06:55:23.924Z,101754.12
2018-02-06T06:57:52.364Z,101751.98
2018-02-06T07:00:20.953Z,101746.48
2018-02-06T07:02:49.398Z,101745.67
2018-02-06T07:05:17.738Z,101743.77
2018-02-06T07:07:46.092Z,101745.81
2018-02-06T07:10:14.563Z,101748.34
2018-02-06T07:12:42.850Z,101744.34
2018-02-06T07:15:11.175Z,101758.89
2018-02-06T07:17:39.494Z,101750.94
2018-02-06T07:20:08.031Z,101748.28
2018-02-06T07:22:36.471Z,101746.04
2018-02-06T07:25:04.942Z,101739.20
2018-02-06T07:27:33.222Z,101743.56
2018-02-06T07:30:01.708Z,101737.98
2018-02-06T07:32:30.215Z,101729.84
2018-02-06T07:34:58.540Z,101738.28
2018-02-06T07:37:26.940Z,101737.33
2018-02-06T07:39:55.281Z,101727.27
2018-02-06T07:42:23.624Z,101726.92
2018-02-06T07:44:52.131Z,101725.86
2018-02-06T07:47:20.472Z,101721.70
2018-02-06T07:49:48.823Z,101723.83
2018-02-06T07:52:17.177Z,101717.79
2018-02-06T07:54:45.559Z,101721.75
2018-02-06T07:57:13.969Z,101721.58
2018-02-06T07:59:42.287Z,101716.30
2018-02-06T08:02:10.636Z,101711.06
2018-02-06T08:04:39.083Z,101708.50
2018-02-06T08:07:07.428Z,101706.06
2018-02-06T08:09:35.910Z,101708.19
2018-02-06T08:12:04.238Z,101706.85
2018-02-06T08:14:32.627Z,101704.53
2018-02-06T08:17:00.977Z,101705.77
2018-02-06T08:19:29.315Z,101709.92
2018-02-06T08:22:04.458Z,101702.66
2018-02-06T08:24:32.754Z,101707.73
2018-02-06T08:27:01.272Z,101707.48
2018-02-06T08:29:29.629Z,101705.59
2018-02-06T08:31:58.053Z,101705.08
2018-02-06T08:34:27.864Z,101695.75
2018-02-06T08:36:59.083Z,101689.73
2018-02-06T08:39:27.734Z,101692.59
2018-02-06T08:41:56.055Z,101694.37
2018-02-06T08:44:24.436Z,101694.36
2018-02-06T08:46:52.779Z,101693.61
2018-02-06T08:49:21.106Z,101695.94
2018-02-06T08:51:49.404Z,101692.83
2018-02-06T08:54:17.815Z,101693.02
2018-02-06T08:56:46.169Z,101686.78
2018-02-06T08:59:14.551Z,101686.39
2018-02-06T09:01:42.911Z,101678.51
2018-02-06T09:04:11.316Z,101684.02
2018-02-06T09:06:39.650Z,101680.19
2018-02-06T09:09:07.947Z,101676.48
2018-02-06T09:11:36.298Z,101675.81
2018-02-06T09:14:04.887Z,101673.13
2018-02-06T09:16:33.270Z,101660.75
2018-02-06T09:19:01.732Z,101661.09
2018-02-06T09:21:30.210Z,101661.16
2018-02-06T09:23:58.690Z,101662.96
2018-02-06T09:26:27.060Z,101662.53
2018-02-06T09:28:55.684Z,101663.97
2018-02-06T09:31:24.001Z,101666.80
2018-02-06T09:33:52.358Z,101663.63
2018-02-06T09:36:20.683Z,101662.96
2018-02-06T09:38:49.044Z,101660.48
2018-02-06T09:41:17.497Z,101670.11
2018-02-06T09:43:45.825Z,101669.78
2018-02-06T09:46:14.194Z,101666.88
2018-02-06T09:48:42.518Z,101666.19
2018-02-06T09:51:10.876Z,101657.88
2018-02-06T09:53:39.160Z,101661.88
2018-02-06T09:56:10.775Z,101659.75
2018-02-06T09:58:39.068Z,101658.00
2018-02-06T10:01:07.562Z,101646.70
2018-02-06T10:03:35.975Z,101647.50
2018-02-06T10:06:04.453Z,101642.16
2018-02-06T10:08:33.627Z,101636.05
2018-02-06T10:11:02.064Z,101640.20
2018-02-06T10:13:30.380Z,101633.94
2018-02-06T10:15:58.681Z,101638.07
2018-02-06T10:18:27.070Z,101633.18
2018-02-06T10:20:55.390Z,101625.88
2018-02-06T10:23:23.681Z,101626.75
2018-02-06T10:25:51.966Z,101618.52
2018-02-06T10:28:20.256Z,101610.30
2018-02-06T10:30:48.558Z,101607.34
2018-02-06T10:33:17.203Z,101602.25
2018-02-06T10:35:45.551Z,101602.63
2018-02-06T10:38:14.367Z,101593.58
2018-02-06T10:40:42.915Z,101591.61
2018-02-06T10:43:11.282Z,101594.19
2018-02-06T10:45:39.686Z,101598.77
2018-02-06T10:48:09.849Z,101596.55
2018-02-06T10:50:38.258Z,101600.84
2018-02-06T10:53:06.719Z,101567.82
2018-02-06T10:55:35.222Z,101559.55
2018-02-06T10:58:03.565Z,101558.20
2018-02-06T11:00:31.947Z,101542.00
2018-02-06T11:03:00.298Z,101543.73
2018-02-06T11:05:28.750Z,101562.91
2018-02-06T11:07:57.078Z,101549.28
2018-02-06T11:10:25.402Z,101552.20
2018-02-06T11:12:53.987Z,101541.52
2018-02-06T11:15:22.759Z,101563.23
2018-02-06T11:17:51.048Z,101551.06
2018-02-06T11:20:19.366Z,101548.86
2018-02-06T11:22:47.717Z,101549.47
2018-02-06T11:25:16.055Z,101533.38
2018-02-06T11:27:44.575Z,101530.23
2018-02-06T11:30:12.919Z,101528.02
2018-02-06T11:32:41.223Z,101517.70
2018-02-06T11:35:09.578Z,101482.17
2018-02-06T11:37:37.899Z,101479.38
2018-02-06T11:40:06.227Z,101457.02
2018-02-06T11:42:34.630Z,101444.74
2018-02-06T11:45:03.278Z,101437.11
2018-02-06T11:47:31.625Z,101495.13
2018-02-06T11:49:59.911Z,101481.58
2018-02-06T11:52:28.296Z,101469.50
2018-02-06T11:54:56.712Z,101469.77
2018-02-06T11:57:25.079Z,101452.87
2018-02-06T11:59:53.356Z,101449.77
2018-02-06T12:02:21.687Z,101451.66
2018-02-06T12:04:49.966Z,101456.16
2018-02-06T12:07:18.314Z,101457.65
2018-02-06T12:09:46.714Z,101459.06
2018-02-06T12:12:15.197Z,101450.84
2018-02-06T12:14:43.525Z,101460.97
2018-02-06T12:17:12.324Z,101448.09
2018-02-06T12:19:40.767Z,101459.84
2018-02-06T12:22:09.135Z,101455.31
2018-02-06T12:24:37.610Z,101454.53
2018-02-06T12:27:06.168Z,101450.61
2018-02-06T12:29:34.718Z,101446.02
2018-02-06T12:32:03.166Z,101447.13
2018-02-06T12:34:31.478Z,101438.27
2018-02-06T12:36:59.774Z,101426.34
2018-02-06T12:39:28.439Z,101428.38
2018-02-06T12:41:56.845Z,101432.34
2018-02-06T12:44:25.208Z,101423.39
2018-02-06T12:46:53.577Z,101428.06
2018-02-06T12:49:21.871Z,101421.29
2018-02-06T12:51:50.243Z,101417.94
2018-02-06T12:54:18.545Z,101414.47
2018-02-06T12:56:46.913Z,101400.74
2018-02-06T12:59:15.266Z,101403.23
2018-02-06T13:01:43.639Z,101395.83
2018-02-06T13:04:11.891Z,101396.81
2018-02-06T13:06:40.207Z,101386.73
2018-02-06T13:09:08.484Z,101377.10
2018-02-06T13:11:43.304Z,101372.78
2018-02-06T13:14:11.681Z,101377.86
2018-02-06T13:16:40.035Z,101369.81
2018-02-06T13:19:08.330Z,101367.67
2018-02-06T13:21:36.655Z,101370.51
2018-02-06T13:24:05.011Z,101356.72
2018-02-06T13:26:33.355Z,101370.22
2018-02-06T13:29:02.000Z,101367.23
2018-02-06T13:31:32.010Z,101362.99
2018-02-06T13:34:00.701Z,101359.41
2018-02-06T13:36:29.017Z,101355.29
2018-02-06T13:38:57.588Z,101349.06
2018-02-06T13:41:26.198Z,101347.73
2018-02-06T13:43:54.682Z,101349.63
2018-02-06T13:46:23.158Z,101352.47
2018-02-06T13:48:51.474Z,101352.93
2018-02-06T13:51:19.798Z,101343.49
2018-02-06T13:53:48.096Z,101347.84
2018-02-06T13:56:16.503Z,101345.20
2018-02-06T13:58:44.795Z,101342.05
2018-02-06T14:01:13.213Z,101327.81
2018-02-06T14:03:41.535Z,101337.38
2018-02-06T14:06:09.983Z,101344.08
2018-02-06T14:08:38.355Z,101339.94
2018-02-06T14:11:06.697Z,101329.33
2018-02-06T14:16:09.530Z,101324.31
2018-02-06T14:18:37.815Z,101322.12
2018-02-06T14:21:06.186Z,101318.30
2018-02-06T14:23:34.507Z,101320.37
2018-02-06T14:26:03.430Z,101315.66
2018-02-06T14:28:31.749Z,101312.55
2018-02-06T14:31:00.963Z,101313.92
2018-02-06T14:33:30.250Z,101309.01
2018-02-06T14:35:58.617Z,101305.16
2018-02-06T14:38:27.498Z,101304.52
2018-02-06T14:40:56.857Z,101303.25
2018-02-06T14:43:25.374Z,101297.69
2018-02-06T14:45:53.792Z,101300.41
2018-02-06T14:48:22.123Z,101296.09
2018-02-06T14:50:50.492Z,101290.09
2018-02-06T14:53:18.795Z,101301.39
2018-02-06T14:55:47.204Z,101294.22
2018-02-06T14:58:15.547Z,101286.15
2018-02-06T15:00:43.860Z,101288.13
2018-02-06T15:03:13.439Z,101285.84
2018-02-06T15:05:41.909Z,101284.42
2018-02-06T15:08:10.272Z,101287.95
2018-02-06T15:10:38.678Z,101282.32
2018-02-06T15:13:06.988Z,101286.56
2018-02-06T15:15:35.332Z,101278.72
2018-02-06T15:18:03.869Z,101280.31
2018-02-06T15:20:32.166Z,101273.36
2018-02-06T15:23:00.524Z,101276.84
2018-02-06T15:25:28.952Z,101267.73
2018-02-06T15:27:57.683Z,101266.31
2018-02-06T15:30:26.018Z,101267.95
2018-02-06T15:32:54.344Z,101265.16
2018-02-06T15:35:22.666Z,101265.56
2018-02-06T15:37:51.050Z,101265.05
2018-02-06T15:40:19.394Z,101259.16
2018-02-06T15:42:49.058Z,101256.05
2018-02-06T15:45:17.421Z,101262.69
2018-02-06T15:47:45.905Z,101258.64
2018-02-06T15:50:14.268Z,101256.23
2018-02-06T15:52:42.671Z,101258.23
2018-02-06T15:55:10.980Z,101264.42
2018-02-06T15:57:39.315Z,101256.16
2018-02-06T16:00:07.894Z,101273.34
2018-02-06T16:02:36.330Z,101268.56
2018-02-06T16:05:04.639Z,101275.51
2018-02-06T16:07:32.940Z,101269.20
2018-02-06T16:10:01.227Z,101267.02
2018-02-06T16:12:30.050Z,101271.91
2018-02-06T16:14:58.403Z,101272.80
2018-02-06T16:17:26.769Z,101271.66
2018-02-06T16:19:55.066Z,101269.47
2018-02-06T16:22:23.607Z,101264.06
2018-02-06T16:24:51.892Z,101262.93
2018-02-06T16:27:20.303Z,101258.45
2018-02-06T16:29:48.634Z,101256.08
2018-02-06T16:32:17.123Z,101253.27
2018-02-06T16:34:45.485Z,101259.70
2018-02-06T16:37:13.961Z,101255.95
2018-02-06T16:39:43.230Z,101257.22
2018-02-06T16:42:11.681Z,101254.09
2018-02-06T16:44:40.162Z,101252.73
2018-02-06T16:47:08.563Z,101251.80
2018-02-06T16:49:37.001Z,101250.42
2018-02-06T16:52:05.355Z,101248.34
2018-02-06T16:54:33.715Z,101249.50
2018-02-06T16:57:02.242Z,101247.14
2018-02-06T16:59:30.781Z,101244.82
2018-02-06T17:01:59.175Z,101244.95
2018-02-06T17:04:27.479Z,101240.24
2018-02-06T17:06:55.906Z,101236.08
2018-02-06T17:09:24.206Z,101232.78
2018-02-06T17:11:52.608Z,101235.16
2018-02-06T17:14:21.075Z,101237.30
2018-02-06T17:16:49.460Z,101243.47
2018-02-06T17:19:17.801Z,101238.98
2018-02-06T17:21:46.181Z,101244.22
2018-02-06T17:24:14.502Z,101241.80
2018-02-06T17:26:49.801Z,101246.06
2018-02-06T17:29:18.144Z,101256.33
2018-02-06T17:31:46.469Z,101251.77
2018-02-06T17:34:14.916Z,101246.63
2018-02-06T17:36:43.284Z,101249.92
2018-02-06T17:39:11.586Z,101251.22
2018-02-06T17:41:39.996Z,101248.80
2018-02-06T17:44:08.326Z,101246.49
2018-02-06T17:46:36.854Z,101249.08
2018-02-06T17:49:05.115Z,101243.98
2018-02-06T17:51:33.492Z,101244.79
2018-02-06T17:54:01.778Z,101240.95
2018-02-06T17:56:30.103Z,101241.91
2018-02-06T17:58:58.539Z,101234.13
2018-02-06T18:01:26.859Z,101228.04
2018-02-06T18:03:55.202Z,101225.45
2018-02-06T18:06:23.568Z,101227.33
2018-02-06T18:08:51.905Z,101226.22
2018-02-06T18:11:20.294Z,101225.70
2018-02-06T18:13:49.222Z,101230.69
2018-02-06T18:16:18.747Z,101225.28
2018-02-06T18:18:47.032Z,101225.06
2018-02-06T18:21:15.352Z,101221.86
2018-02-06T18:23:43.798Z,101224.38
2018-02-06T18:26:12.240Z,101217.16
2018-02-06T18:28:40.563Z,101219.19
2018-02-06T18:31:10.760Z,101222.08
2018-02-06T18:33:39.212Z,101218.92
2018-02-06T18:36:07.635Z,101211.45
2018-02-06T18:38:36.080Z,101205.55
2018-02-06T18:41:04.613Z,101209.48
2018-02-06T18:43:33.034Z,101209.89
2018-02-06T18:46:01.391Z,101214.67
2018-02-06T18:48:30.055Z,101214.91
2018-02-06T18:50:58.503Z,101223.07
2018-02-06T18:53:26.882Z,101212.89
2018-02-06T18:55:55.946Z,101212.59
2018-02-06T18:58:24.603Z,101209.55
2018-02-06T19:00:53.241Z,101220.33
2018-02-06T19:03:23.730Z,101220.44
2018-02-06T19:05:57.580Z,101232.78
2018-02-06T19:08:26.915Z,101223.24
2018-02-06T19:10:55.243Z,101227.80
2018-02-06T19:13:26.060Z,101223.54
2018-02-06T19:15:54.456Z,101217.75
2018-02-06T19:18:23.723Z,101223.42
2018-02-06T19:20:52.289Z,101222.22
2018-02-06T19:23:21.158Z,101218.16
2018-02-06T19:25:49.622Z,101212.39
2018-02-06T19:28:18.562Z,101217.64
2018-02-06T19:30:47.182Z,101215.69
2018-02-06T19:33:15.547Z,101213.63
2018-02-06T19:35:43.873Z,101206.87
2018-02-06T19:38:15.944Z,101208.23
2018-02-06T19:40:44.392Z,101199.03
2018-02-06T19:43:12.730Z,101198.34
2018-02-06T19:45:41.162Z,101204.61
2018-02-06T19:48:09.469Z,101205.47
2018-02-06T19:50:38.014Z,101213.61
2018-02-06T19:53:06.307Z,101210.70
2018-02-06T19:55:34.673Z,101217.97
2018-02-06T19:58:03.007Z,101213.44
2018-02-06T20:00:31.482Z,101208.30
2018-02-06T20:02:59.906Z,101211.84
2018-02-06T20:05:28.360Z,101215.64
2018-02-06T20:07:56.703Z,101200.79
2018-02-06T20:10:25.106Z,101205.55
2018-02-06T20:12:53.454Z,101214.05
2018-02-06T20:15:22.194Z,101207.40
2018-02-06T20:17:50.646Z,101202.59
2018-02-06T20:20:19.083Z,101207.03
2018-02-06T20:22:47.539Z,101216.23
2018-02-06T20:25:16.199Z,101218.31
2018-02-06T20:27:44.609Z,101224.52
2018-02-06T20:30:13.031Z,101225.42
2018-02-06T20:32:41.374Z,101219.95
2018-02-06T20:35:12.401Z,101228.20
2018-02-06T20:37:41.055Z,101217.86
2018-02-06T20:40:09.388Z,101218.92
2018-02-06T20:42:37.826Z,101221.19
2018-02-06T20:45:06.154Z,101219.43
2018-02-06T20:47:34.791Z,101213.73
2018-02-06T20:50:03.292Z,101206.20
2018-02-06T20:52:31.647Z,101196.18
2018-02-06T20:54:59.998Z,101193.97
2018-02-06T20:57:32.175Z,101194.30
2018-02-06T21:00:00.620Z,101187.56
2018-02-06T21:02:28.954Z,101191.28
2018-02-06T21:04:57.279Z,101191.82
2018-02-06T21:07:25.611Z,101190.87
2018-02-06T21:09:53.935Z,101195.05
2018-02-06T21:12:22.498Z,101187.91
2018-02-06T21:14:50.852Z,101188.12
2018-02-06T21:17:19.217Z,101188.42
2018-02-06T21:19:47.503Z,101186.22
2018-02-06T21:22:15.847Z,101185.81
2018-02-06T21:24:45.970Z,101195.03
2018-02-06T21:28:14.829Z,101188.16
2018-02-06T21:30:46.127Z,101181.05
2018-02-06T21:33:14.548Z,101174.97
2018-02-06T21:35:42.910Z,101182.28
2018-02-06T21:38:11.335Z,101181.80
2018-02-06T21:40:39.940Z,101177.88
2018-02-06T21:43:08.644Z,101177.64
2018-02-06T21:45:37.300Z,101179.30
2018-02-06T21:48:06.308Z,101183.22
2018-02-06T21:50:34.682Z,101184.38
2018-02-06T21:53:03.027Z,101172.04
2018-02-06T21:55:33.427Z,101177.37
2018-02-06T21:58:01.978Z,101176.93
2018-02-06T22:00:30.593Z,101180.67
2018-02-06T22:02:58.906Z,101180.03
2018-02-06T22:05:27.312Z,101179.52
2018-02-06T22:07:55.870Z,101184.38
2018-02-06T22:10:24.330Z,101179.84
2018-02-06T22:12:52.785Z,101185.12
2018-02-06T22:15:23.136Z,101186.53
2018-02-06T22:17:54.343Z,101182.64
2018-02-06T22:20:27.131Z,101188.22
2018-02-06T22:22:57.550Z,101191.19
2018-02-06T22:25:29.854Z,101187.98
2018-02-06T22:27:59.034Z,101183.12
2018-02-06T22:30:29.783Z,101183.44
2018-02-06T22:32:58.815Z,101186.02
2018-02-06T22:35:30.137Z,101184.27
2018-02-06T22:38:00.645Z,101182.92
2018-02-06T22:40:30.969Z,101180.33
2018-02-06T22:43:00.496Z,101186.90
2018-02-06T22:45:29.113Z,101180.88
2018-02-06T22:47:57.637Z,101183.14
2018-02-06T22:50:25.971Z,101189.48
2018-02-06T22:52:54.679Z,101183.22
2018-02-06T22:55:23.012Z,101183.85
2018-02-06T22:57:51.647Z,101177.39
2018-02-06T23:00:23.612Z,101182.19
2018-02-06T23:02:51.991Z,101178.38
2018-02-06T23:05:21.124Z,101180.34
2018-02-06T23:07:49.752Z,101185.61
2018-02-06T23:10:18.115Z,101183.58
2018-02-06T23:12:46.805Z,101176.75
2018-02-06T23:15:15.369Z,101174.45
2018-02-06T23:17:43.833Z,101176.22
2018-02-06T23:20:12.166Z,101173.60
2018-02-06T23:22:40.463Z,101179.37
2018-02-06T23:25:08.842Z,101177.75
2018-02-06T23:27:37.206Z,101180.59
2018-02-06T23:30:05.540Z,101176.55
2018-02-06T23:32:34.027Z,101174.23
2018-02-06T23:35:02.311Z,101171.75
2018-02-06T23:37:30.684Z,101179.64
2018-02-06T23:39:58.994Z,101176.16
2018-02-06T23:42:27.698Z,101175.78
2018-02-06T23:44:56.011Z,101169.39
2018-02-06T23:47:24.388Z,101177.56
2018-02-06T23:49:52.814Z,101172.91
2018-02-06T23:52:21.514Z,101167.50
2018-02-06T23:54:50.338Z,101176.32
2018-02-06T23:57:19.326Z,101167.98
2018-02-06T23:59:48.276Z,101164.95
